sensor_id;sensor_type;location;lat;lon;timestamp;temperature;humidity
4509;DHT22;2267;48.816;9.230;2023-11-18T00:00:46;8.40;99.90
4509;DHT22;2267;48.816;9.230;2023-11-18T00:03:13;8.30;99.90
4509;DHT22;2267;48.816;9.230;2023-11-18T00:05:40;8.30;99.90
4509;DHT22;2267;48.816;9.230;2023-11-18T00:08:06;8.30;99.90
4509;DHT22;2267;48.816;9.230;2023-11-18T00:10:33;8.30;99.90
4509;DHT22;2267;48.816;9.230;2023-11-18T00:13:00;8.30;99.90
4509;DHT22;2267;48.816;9.230;2023-11-18T00:15:28;8.30;99.90
4509;DHT22;2267;48.816;9.230;2023-11-18T00:17:55;8.30;99.90
4509;DHT22;2267;48.816;9.230;2023-11-18T00:20:22;8.30;99.90
4509;DHT22;2267;48.816;9.230;2023-11-18T00:22:50;8.30;99.90
4509;DHT22;2267;48.816;9.230;2023-11-18T00:25:19;8.30;99.90
4509;DHT22;2267;48.816;9.230;2023-11-18T00:27:45;8.30;99.90
4509;DHT22;2267;48.816;9.230;2023-11-18T00:30:12;8.30;99.90
4509;DHT22;2267;48.816;9.230;2023-11-18T00:32:39;8.30;99.90
4509;DHT22;2267;48.816;9.230;2023-11-18T00:35:06;8.30;99.90
4509;DHT22;2267;48.816;9.230;2023-11-18T00:37:33;8.30;99.90
4509;DHT22;2267;48.816;9.230;2023-11-18T00:40:00;8.30;99.90
4509;DHT22;2267;48.816;9.230;2023-11-18T00:42:27;8.30;99.90
4509;DHT22;2267;48.816;9.230;2023-11-18T00:44:53;8.20;99.90
4509;DHT22;2267;48.816;9.230;2023-11-18T00:47:21;8.30;99.90
4509;DHT22;2267;48.816;9.230;2023-11-18T00:49:49;8.20;99.90
4509;DHT22;2267;48.816;9.230;2023-11-18T00:52:18;8.20;99.90
4509;DHT22;2267;48.816;9.230;2023-11-18T00:54:46;8.30;99.90
4509;DHT22;2267;48.816;9.230;2023-11-18T00:57:12;8.30;99.90
4509;DHT22;2267;48.816;9.230;2023-11-18T00:59:42;8.20;99.90
4509;DHT22;2267;48.816;9.230;2023-11-18T01:02:10;8.20;99.90
4509;DHT22;2267;48.816;9.230;2023-11-18T01:04:37;8.30;99.90
4509;DHT22;2267;48.816;9.230;2023-11-18T01:07:04;8.20;99.90
4509;DHT22;2267;48.816;9.230;2023-11-18T01:09:30;8.30;99.90
4509;DHT22;2267;48.816;9.230;2023-11-18T01:12:03;8.30;99.90
4509;DHT22;2267;48.816;9.230;2023-11-18T01:14:37;8.30;99.90
4509;DHT22;2267;48.816;9.230;2023-11-18T01:17:06;8.20;99.90
4509;DHT22;2267;48.816;9.230;2023-11-18T01:19:33;8.30;99.90
4509;DHT22;2267;48.816;9.230;2023-11-18T01:22:02;8.30;99.90
4509;DHT22;2267;48.816;9.230;2023-11-18T01:24:32;8.30;99.90
4509;DHT22;2267;48.816;9.230;2023-11-18T01:27:00;8.30;99.90
4509;DHT22;2267;48.816;9.230;2023-11-18T01:29:27;8.20;99.90
4509;DHT22;2267;48.816;9.230;2023-11-18T01:31:54;8.30;99.90
4509;DHT22;2267;48.816;9.230;2023-11-18T01:34:22;8.20;99.90
4509;DHT22;2267;48.816;9.230;2023-11-18T01:36:49;8.30;99.90
4509;DHT22;2267;48.816;9.230;2023-11-18T01:39:17;8.30;99.90
4509;DHT22;2267;48.816;9.230;2023-11-18T01:41:47;8.30;99.90
4509;DHT22;2267;48.816;9.230;2023-11-18T01:44:15;8.30;99.90
4509;DHT22;2267;48.816;9.230;2023-11-18T01:46:42;8.30;99.90
4509;DHT22;2267;48.816;9.230;2023-11-18T01:49:13;8.30;99.90
4509;DHT22;2267;48.816;9.230;2023-11-18T01:51:45;8.30;99.90
4509;DHT22;2267;48.816;9.230;2023-11-18T01:54:12;8.30;99.90
4509;DHT22;2267;48.816;9.230;2023-11-18T01:56:43;8.30;99.90
4509;DHT22;2267;48.816;9.230;2023-11-18T01:59:10;8.30;99.90
4509;DHT22;2267;48.816;9.230;2023-11-18T02:01:41;8.30;99.90
4509;DHT22;2267;48.816;9.230;2023-11-18T02:04:10;8.30;99.90
4509;DHT22;2267;48.816;9.230;2023-11-18T02:06:37;8.30;99.90
4509;DHT22;2267;48.816;9.230;2023-11-18T02:09:04;8.30;99.90
4509;DHT22;2267;48.816;9.230;2023-11-18T02:11:36;8.30;99.90
4509;DHT22;2267;48.816;9.230;2023-11-18T02:14:08;8.30;99.90
4509;DHT22;2267;48.816;9.230;2023-11-18T02:16:38;8.30;99.90
4509;DHT22;2267;48.816;9.230;2023-11-18T02:19:12;8.30;99.90
4509;DHT22;2267;48.816;9.230;2023-11-18T02:21:41;8.30;99.90
4509;DHT22;2267;48.816;9.230;2023-11-18T02:24:08;8.30;99.90
4509;DHT22;2267;48.816;9.230;2023-11-18T02:26:36;8.40;99.90
4509;DHT22;2267;48.816;9.230;2023-11-18T02:29:02;8.30;99.90
4509;DHT22;2267;48.816;9.230;2023-11-18T02:31:33;8.30;99.90
4509;DHT22;2267;48.816;9.230;2023-11-18T02:34:01;8.30;99.90
4509;DHT22;2267;48.816;9.230;2023-11-18T02:39:08;8.40;99.90
4509;DHT22;2267;48.816;9.230;2023-11-18T02:41:38;8.40;99.90
4509;DHT22;2267;48.816;9.230;2023-11-18T02:44:05;8.30;99.90
4509;DHT22;2267;48.816;9.230;2023-11-18T02:46:36;8.40;99.90
4509;DHT22;2267;48.816;9.230;2023-11-18T02:49:04;8.30;99.90
4509;DHT22;2267;48.816;9.230;2023-11-18T02:51:31;8.40;99.90
4509;DHT22;2267;48.816;9.230;2023-11-18T02:54:00;8.30;99.90
4509;DHT22;2267;48.816;9.230;2023-11-18T02:56:26;8.30;99.90
4509;DHT22;2267;48.816;9.230;2023-11-18T02:58:53;8.30;99.90
4509;DHT22;2267;48.816;9.230;2023-11-18T03:01:20;8.40;99.90
4509;DHT22;2267;48.816;9.230;2023-11-18T03:03:47;8.40;99.90
4509;DHT22;2267;48.816;9.230;2023-11-18T03:06:13;8.40;99.90
4509;DHT22;2267;48.816;9.230;2023-11-18T03:08:40;8.30;99.90
4509;DHT22;2267;48.816;9.230;2023-11-18T03:11:08;8.30;99.90
4509;DHT22;2267;48.816;9.230;2023-11-18T03:13:36;8.30;99.90
4509;DHT22;2267;48.816;9.230;2023-11-18T03:16:07;8.30;99.90
4509;DHT22;2267;48.816;9.230;2023-11-18T03:18:41;8.30;99.90
4509;DHT22;2267;48.816;9.230;2023-11-18T03:21:11;8.30;99.90
4509;DHT22;2267;48.816;9.230;2023-11-18T03:23:39;8.30;99.90
4509;DHT22;2267;48.816;9.230;2023-11-18T03:26:07;8.20;99.90
4509;DHT22;2267;48.816;9.230;2023-11-18T03:28:34;8.20;99.90
4509;DHT22;2267;48.816;9.230;2023-11-18T03:31:03;8.20;99.90
4509;DHT22;2267;48.816;9.230;2023-11-18T03:33:31;8.20;99.90
4509;DHT22;2267;48.816;9.230;2023-11-18T03:35:58;8.20;99.90
4509;DHT22;2267;48.816;9.230;2023-11-18T03:38:24;8.10;99.90
4509;DHT22;2267;48.816;9.230;2023-11-18T03:40:51;8.10;99.90
4509;DHT22;2267;48.816;9.230;2023-11-18T03:43:18;8.10;99.90
4509;DHT22;2267;48.816;9.230;2023-11-18T03:45:46;8.10;99.90
4509;DHT22;2267;48.816;9.230;2023-11-18T03:48:13;8.10;99.90
4509;DHT22;2267;48.816;9.230;2023-11-18T03:50:41;8.10;99.90
4509;DHT22;2267;48.816;9.230;2023-11-18T03:53:08;8.10;99.90
4509;DHT22;2267;48.816;9.230;2023-11-18T03:55:34;8.10;99.90
4509;DHT22;2267;48.816;9.230;2023-11-18T03:58:01;8.10;99.90
4509;DHT22;2267;48.816;9.230;2023-11-18T04:00:29;8.10;99.90
4509;DHT22;2267;48.816;9.230;2023-11-18T04:02:56;8.10;99.90
4509;DHT22;2267;48.816;9.230;2023-11-18T04:05:23;8.10;99.90
4509;DHT22;2267;48.816;9.230;2023-11-18T04:07:50;8.10;99.90
4509;DHT22;2267;48.816;9.230;2023-11-18T04:10:17;8.10;99.90
4509;DHT22;2267;48.816;9.230;2023-11-18T04:12:44;8.10;99.90
4509;DHT22;2267;48.816;9.230;2023-11-18T04:15:14;8.10;99.90
4509;DHT22;2267;48.816;9.230;2023-11-18T04:17:44;8.10;99.90
4509;DHT22;2267;48.816;9.230;2023-11-18T04:20:11;8.10;99.90
4509;DHT22;2267;48.816;9.230;2023-11-18T04:22:39;8.00;99.90
4509;DHT22;2267;48.816;9.230;2023-11-18T04:25:09;8.10;99.90
4509;DHT22;2267;48.816;9.230;2023-11-18T04:27:37;8.10;99.90
4509;DHT22;2267;48.816;9.230;2023-11-18T04:30:05;8.00;99.90
4509;DHT22;2267;48.816;9.230;2023-11-18T04:32:32;8.00;99.90
4509;DHT22;2267;48.816;9.230;2023-11-18T04:34:59;8.00;99.90
4509;DHT22;2267;48.816;9.230;2023-11-18T04:37:26;8.00;99.90
4509;DHT22;2267;48.816;9.230;2023-11-18T04:39:53;8.00;99.90
4509;DHT22;2267;48.816;9.230;2023-11-18T04:42:21;8.00;99.90
4509;DHT22;2267;48.816;9.230;2023-11-18T04:44:48;8.00;99.90
4509;DHT22;2267;48.816;9.230;2023-11-18T04:47:15;8.00;99.90
4509;DHT22;2267;48.816;9.230;2023-11-18T04:49:44;7.90;99.90
4509;DHT22;2267;48.816;9.230;2023-11-18T04:52:11;8.00;99.90
4509;DHT22;2267;48.816;9.230;2023-11-18T04:54:38;7.90;99.90
4509;DHT22;2267;48.816;9.230;2023-11-18T04:57:05;7.90;99.90
4509;DHT22;2267;48.816;9.230;2023-11-18T04:59:33;7.90;99.90
4509;DHT22;2267;48.816;9.230;2023-11-18T05:01:59;7.90;99.90
4509;DHT22;2267;48.816;9.230;2023-11-18T05:04:29;7.90;99.90
4509;DHT22;2267;48.816;9.230;2023-11-18T05:06:56;7.90;99.90
4509;DHT22;2267;48.816;9.230;2023-11-18T05:09:23;7.90;99.90
4509;DHT22;2267;48.816;9.230;2023-11-18T05:11:50;7.80;99.90
4509;DHT22;2267;48.816;9.230;2023-11-18T05:14:17;7.80;99.90
4509;DHT22;2267;48.816;9.230;2023-11-18T05:16:44;7.80;99.90
4509;DHT22;2267;48.816;9.230;2023-11-18T05:19:10;7.80;99.90
4509;DHT22;2267;48.816;9.230;2023-11-18T05:21:37;7.70;99.90
4509;DHT22;2267;48.816;9.230;2023-11-18T05:24:04;7.80;99.90
4509;DHT22;2267;48.816;9.230;2023-11-18T05:26:31;7.70;99.90
4509;DHT22;2267;48.816;9.230;2023-11-18T05:28:57;7.70;99.90
4509;DHT22;2267;48.816;9.230;2023-11-18T05:31:24;7.70;99.90
4509;DHT22;2267;48.816;9.230;2023-11-18T05:33:51;7.70;99.90
4509;DHT22;2267;48.816;9.230;2023-11-18T05:36:22;7.70;99.90
4509;DHT22;2267;48.816;9.230;2023-11-18T05:38:54;7.70;99.90
4509;DHT22;2267;48.816;9.230;2023-11-18T05:41:21;7.60;99.90
4509;DHT22;2267;48.816;9.230;2023-11-18T05:43:54;7.60;99.90
4509;DHT22;2267;48.816;9.230;2023-11-18T05:46:26;7.60;99.90
4509;DHT22;2267;48.816;9.230;2023-11-18T05:48:56;7.60;99.90
4509;DHT22;2267;48.816;9.230;2023-11-18T05:51:24;7.60;99.90
4509;DHT22;2267;48.816;9.230;2023-11-18T05:53:52;7.60;99.90
4509;DHT22;2267;48.816;9.230;2023-11-18T05:56:19;7.60;99.90
4509;DHT22;2267;48.816;9.230;2023-11-18T05:58:48;7.60;99.90
4509;DHT22;2267;48.816;9.230;2023-11-18T06:01:15;7.60;99.90
4509;DHT22;2267;48.816;9.230;2023-11-18T06:03:43;7.60;99.90
4509;DHT22;2267;48.816;9.230;2023-11-18T06:06:11;7.60;99.90
4509;DHT22;2267;48.816;9.230;2023-11-18T06:08:38;7.50;99.90
4509;DHT22;2267;48.816;9.230;2023-11-18T06:11:11;7.50;99.90
4509;DHT22;2267;48.816;9.230;2023-11-18T06:13:42;7.50;99.90
4509;DHT22;2267;48.816;9.230;2023-11-18T06:16:09;7.50;99.90
4509;DHT22;2267;48.816;9.230;2023-11-18T06:18:43;7.50;99.90
4509;DHT22;2267;48.816;9.230;2023-11-18T06:21:13;7.50;99.90
4509;DHT22;2267;48.816;9.230;2023-11-18T06:23:41;7.50;99.90
4509;DHT22;2267;48.816;9.230;2023-11-18T06:26:08;7.40;99.90
4509;DHT22;2267;48.816;9.230;2023-11-18T06:28:38;7.40;99.90
4509;DHT22;2267;48.816;9.230;2023-11-18T06:31:05;7.40;99.90
4509;DHT22;2267;48.816;9.230;2023-11-18T06:33:38;7.40;99.90
4509;DHT22;2267;48.816;9.230;2023-11-18T06:38:49;7.40;99.90
4509;DHT22;2267;48.816;9.230;2023-11-18T06:41:20;7.40;99.90
4509;DHT22;2267;48.816;9.230;2023-11-18T06:43:49;7.40;99.90
4509;DHT22;2267;48.816;9.230;2023-11-18T06:46:27;7.30;99.90
4509;DHT22;2267;48.816;9.230;2023-11-18T06:48:58;7.30;99.90
4509;DHT22;2267;48.816;9.230;2023-11-18T06:51:26;7.30;99.90
4509;DHT22;2267;48.816;9.230;2023-11-18T06:53:54;7.30;99.90
4509;DHT22;2267;48.816;9.230;2023-11-18T06:56:22;7.30;99.90
4509;DHT22;2267;48.816;9.230;2023-11-18T06:58:49;7.40;99.90
4509;DHT22;2267;48.816;9.230;2023-11-18T07:01:16;7.40;99.90
4509;DHT22;2267;48.816;9.230;2023-11-18T07:03:43;7.40;99.90
4509;DHT22;2267;48.816;9.230;2023-11-18T07:06:11;7.40;99.90
4509;DHT22;2267;48.816;9.230;2023-11-18T07:08:40;7.40;99.90
4509;DHT22;2267;48.816;9.230;2023-11-18T07:11:07;7.30;99.90
4509;DHT22;2267;48.816;9.230;2023-11-18T07:13:34;7.40;99.90
4509;DHT22;2267;48.816;9.230;2023-11-18T07:16:01;7.40;99.90
4509;DHT22;2267;48.816;9.230;2023-11-18T07:18:30;7.40;99.90
4509;DHT22;2267;48.816;9.230;2023-11-18T07:21:01;7.40;99.90
4509;DHT22;2267;48.816;9.230;2023-11-18T07:23:34;7.40;99.90
4509;DHT22;2267;48.816;9.230;2023-11-18T07:26:00;7.40;99.90
4509;DHT22;2267;48.816;9.230;2023-11-18T07:28:27;7.40;99.90
4509;DHT22;2267;48.816;9.230;2023-11-18T07:30:54;7.40;99.90
4509;DHT22;2267;48.816;9.230;2023-11-18T07:33:21;7.40;99.90
4509;DHT22;2267;48.816;9.230;2023-11-18T07:35:48;7.50;99.90
4509;DHT22;2267;48.816;9.230;2023-11-18T07:38:15;7.50;99.90
4509;DHT22;2267;48.816;9.230;2023-11-18T07:40:42;7.50;99.90
4509;DHT22;2267;48.816;9.230;2023-11-18T07:43:12;7.50;99.90
4509;DHT22;2267;48.816;9.230;2023-11-18T07:45:39;7.60;99.90
4509;DHT22;2267;48.816;9.230;2023-11-18T07:48:06;7.60;99.90
4509;DHT22;2267;48.816;9.230;2023-11-18T07:50:34;7.60;99.90
4509;DHT22;2267;48.816;9.230;2023-11-18T07:53:01;7.70;99.90
4509;DHT22;2267;48.816;9.230;2023-11-18T07:55:28;7.70;99.90
4509;DHT22;2267;48.816;9.230;2023-11-18T07:57:56;7.80;99.90
4509;DHT22;2267;48.816;9.230;2023-11-18T08:00:22;7.90;99.90
4509;DHT22;2267;48.816;9.230;2023-11-18T08:02:51;7.90;99.90
4509;DHT22;2267;48.816;9.230;2023-11-18T08:05:21;7.90;99.90
4509;DHT22;2267;48.816;9.230;2023-11-18T08:07:49;8.00;99.90
4509;DHT22;2267;48.816;9.230;2023-11-18T08:10:16;8.00;99.90
4509;DHT22;2267;48.816;9.230;2023-11-18T08:12:46;8.00;99.90
4509;DHT22;2267;48.816;9.230;2023-11-18T08:15:13;8.00;99.90
4509;DHT22;2267;48.816;9.230;2023-11-18T08:17:40;8.10;99.90
4509;DHT22;2267;48.816;9.230;2023-11-18T08:20:07;8.10;99.90
4509;DHT22;2267;48.816;9.230;2023-11-18T08:22:41;8.10;99.90
4509;DHT22;2267;48.816;9.230;2023-11-18T08:25:11;8.10;99.90
4509;DHT22;2267;48.816;9.230;2023-11-18T08:27:39;8.10;99.90
4509;DHT22;2267;48.816;9.230;2023-11-18T08:30:07;8.10;99.90
4509;DHT22;2267;48.816;9.230;2023-11-18T08:32:41;8.10;99.90
4509;DHT22;2267;48.816;9.230;2023-11-18T08:35:11;8.10;99.90
4509;DHT22;2267;48.816;9.230;2023-11-18T08:37:40;8.20;99.90
4509;DHT22;2267;48.816;9.230;2023-11-18T08:40:07;8.20;99.90
4509;DHT22;2267;48.816;9.230;2023-11-18T08:42:44;8.20;99.90
4509;DHT22;2267;48.816;9.230;2023-11-18T08:45:25;8.20;99.90
4509;DHT22;2267;48.816;9.230;2023-11-18T08:48:01;8.30;99.90
4509;DHT22;2267;48.816;9.230;2023-11-18T08:50:28;8.30;99.90
4509;DHT22;2267;48.816;9.230;2023-11-18T08:52:56;8.30;99.90
4509;DHT22;2267;48.816;9.230;2023-11-18T08:55:30;8.30;99.90
4509;DHT22;2267;48.816;9.230;2023-11-18T08:58:10;8.30;99.90
4509;DHT22;2267;48.816;9.230;2023-11-18T09:00:57;8.30;99.90
4509;DHT22;2267;48.816;9.230;2023-11-18T09:03:41;8.40;99.90
4509;DHT22;2267;48.816;9.230;2023-11-18T09:06:15;8.80;99.90
4509;DHT22;2267;48.816;9.230;2023-11-18T09:08:52;9.20;99.90
4509;DHT22;2267;48.816;9.230;2023-11-18T09:11:22;9.40;99.90
4509;DHT22;2267;48.816;9.230;2023-11-18T09:13:50;9.30;99.90
4509;DHT22;2267;48.816;9.230;2023-11-18T09:16:21;9.30;99.90
4509;DHT22;2267;48.816;9.230;2023-11-18T09:18:49;9.20;99.90
4509;DHT22;2267;48.816;9.230;2023-11-18T09:21:17;9.20;99.90
4509;DHT22;2267;48.816;9.230;2023-11-18T09:23:52;9.20;99.90
4509;DHT22;2267;48.816;9.230;2023-11-18T09:26:19;9.20;99.90
4509;DHT22;2267;48.816;9.230;2023-11-18T09:28:48;9.20;99.90
4509;DHT22;2267;48.816;9.230;2023-11-18T09:31:17;9.20;99.90
4509;DHT22;2267;48.816;9.230;2023-11-18T09:33:44;9.20;99.90
4509;DHT22;2267;48.816;9.230;2023-11-18T09:36:19;9.20;99.90
4509;DHT22;2267;48.816;9.230;2023-11-18T09:38:47;9.20;99.90
4509;DHT22;2267;48.816;9.230;2023-11-18T09:41:15;9.10;99.90
4509;DHT22;2267;48.816;9.230;2023-11-18T09:43:44;9.10;99.90
4509;DHT22;2267;48.816;9.230;2023-11-18T09:46:17;9.10;99.90
4509;DHT22;2267;48.816;9.230;2023-11-18T09:48:48;9.10;99.90
4509;DHT22;2267;48.816;9.230;2023-11-18T09:51:20;9.10;99.90
4509;DHT22;2267;48.816;9.230;2023-11-18T09:53:53;9.20;99.90
4509;DHT22;2267;48.816;9.230;2023-11-18T09:59:22;9.20;99.90
4509;DHT22;2267;48.816;9.230;2023-11-18T10:01:53;9.10;99.90
4509;DHT22;2267;48.816;9.230;2023-11-18T10:04:24;9.20;99.90
4509;DHT22;2267;48.816;9.230;2023-11-18T10:06:55;9.20;99.90
4509;DHT22;2267;48.816;9.230;2023-11-18T10:09:23;9.20;99.90
4509;DHT22;2267;48.816;9.230;2023-11-18T10:12:04;9.20;99.90
4509;DHT22;2267;48.816;9.230;2023-11-18T10:14:35;9.20;99.90
4509;DHT22;2267;48.816;9.230;2023-11-18T10:17:08;9.20;99.90
4509;DHT22;2267;48.816;9.230;2023-11-18T10:19:54;9.20;99.90
4509;DHT22;2267;48.816;9.230;2023-11-18T10:22:27;9.20;99.90
4509;DHT22;2267;48.816;9.230;2023-11-18T10:24:56;9.20;99.90
4509;DHT22;2267;48.816;9.230;2023-11-18T10:27:27;9.20;99.90
4509;DHT22;2267;48.816;9.230;2023-11-18T10:29:57;9.10;99.90
4509;DHT22;2267;48.816;9.230;2023-11-18T10:32:24;9.10;99.90
4509;DHT22;2267;48.816;9.230;2023-11-18T10:34:58;9.20;99.90
4509;DHT22;2267;48.816;9.230;2023-11-18T10:37:26;9.20;99.90
4509;DHT22;2267;48.816;9.230;2023-11-18T10:39:58;9.20;99.90
4509;DHT22;2267;48.816;9.230;2023-11-18T10:42:30;9.10;99.90
4509;DHT22;2267;48.816;9.230;2023-11-18T10:45:00;9.20;99.90
4509;DHT22;2267;48.816;9.230;2023-11-18T10:47:34;9.20;99.90
4509;DHT22;2267;48.816;9.230;2023-11-18T10:50:06;9.20;99.90
4509;DHT22;2267;48.816;9.230;2023-11-18T10:52:37;9.20;99.90
4509;DHT22;2267;48.816;9.230;2023-11-18T10:55:07;9.20;99.90
4509;DHT22;2267;48.816;9.230;2023-11-18T10:57:40;9.20;99.90
4509;DHT22;2267;48.816;9.230;2023-11-18T11:00:09;9.30;99.90
4509;DHT22;2267;48.816;9.230;2023-11-18T11:02:41;9.30;99.90
4509;DHT22;2267;48.816;9.230;2023-11-18T11:05:08;9.30;99.90
4509;DHT22;2267;48.816;9.230;2023-11-18T11:07:48;9.30;99.90
4509;DHT22;2267;48.816;9.230;2023-11-18T11:10:16;9.30;99.90
4509;DHT22;2267;48.816;9.230;2023-11-18T11:12:50;9.40;99.90
4509;DHT22;2267;48.816;9.230;2023-11-18T11:15:28;9.40;99.90
4509;DHT22;2267;48.816;9.230;2023-11-18T11:18:05;9.40;99.90
4509;DHT22;2267;48.816;9.230;2023-11-18T11:20:46;9.40;99.90
4509;DHT22;2267;48.816;9.230;2023-11-18T11:23:22;9.50;99.90
4509;DHT22;2267;48.816;9.230;2023-11-18T11:34:35;9.50;99.90
4509;DHT22;2267;48.816;9.230;2023-11-18T11:37:04;9.50;99.90
4509;DHT22;2267;48.816;9.230;2023-11-18T11:39:34;9.50;99.90
4509;DHT22;2267;48.816;9.230;2023-11-18T11:42:03;9.50;99.90
4509;DHT22;2267;48.816;9.230;2023-11-18T11:44:37;9.50;99.90
4509;DHT22;2267;48.816;9.230;2023-11-18T11:47:09;9.60;99.90
4509;DHT22;2267;48.816;9.230;2023-11-18T11:49:53;9.60;99.90
4509;DHT22;2267;48.816;9.230;2023-11-18T11:52:31;9.60;99.90
4509;DHT22;2267;48.816;9.230;2023-11-18T11:55:12;9.60;99.90
4509;DHT22;2267;48.816;9.230;2023-11-18T11:57:42;9.60;99.90
4509;DHT22;2267;48.816;9.230;2023-11-18T12:00:10;9.60;99.90
4509;DHT22;2267;48.816;9.230;2023-11-18T12:02:50;9.60;99.90
4509;DHT22;2267;48.816;9.230;2023-11-18T12:05:30;9.60;99.90
4509;DHT22;2267;48.816;9.230;2023-11-18T12:08:00;9.60;99.90
4509;DHT22;2267;48.816;9.230;2023-11-18T12:10:30;9.60;99.90
4509;DHT22;2267;48.816;9.230;2023-11-18T12:13:11;9.60;99.90
4509;DHT22;2267;48.816;9.230;2023-11-18T12:15:54;9.60;99.90
4509;DHT22;2267;48.816;9.230;2023-11-18T12:18:23;9.60;99.90
4509;DHT22;2267;48.816;9.230;2023-11-18T12:20:51;9.60;99.90
4509;DHT22;2267;48.816;9.230;2023-11-18T12:23:22;9.60;99.90
4509;DHT22;2267;48.816;9.230;2023-11-18T12:25:53;9.60;99.90
4509;DHT22;2267;48.816;9.230;2023-11-18T12:28:26;9.50;99.90
4509;DHT22;2267;48.816;9.230;2023-11-18T12:30:57;9.50;99.90
4509;DHT22;2267;48.816;9.230;2023-11-18T12:33:25;9.50;99.90
4509;DHT22;2267;48.816;9.230;2023-11-18T12:41:02;9.50;99.90
4509;DHT22;2267;48.816;9.230;2023-11-18T12:46:53;9.60;99.90
4509;DHT22;2267;48.816;9.230;2023-11-18T12:49:23;9.50;99.90
4509;DHT22;2267;48.816;9.230;2023-11-18T12:51:52;9.50;99.90
4509;DHT22;2267;48.816;9.230;2023-11-18T12:54:20;9.50;99.90
4509;DHT22;2267;48.816;9.230;2023-11-18T12:56:51;9.50;99.90
4509;DHT22;2267;48.816;9.230;2023-11-18T12:59:20;9.60;99.90
4509;DHT22;2267;48.816;9.230;2023-11-18T13:01:48;9.60;99.90
4509;DHT22;2267;48.816;9.230;2023-11-18T13:04:23;9.60;99.90
4509;DHT22;2267;48.816;9.230;2023-11-18T13:06:51;9.60;99.90
4509;DHT22;2267;48.816;9.230;2023-11-18T13:09:18;9.60;99.90
4509;DHT22;2267;48.816;9.230;2023-11-18T13:11:59;9.60;99.90
4509;DHT22;2267;48.816;9.230;2023-11-18T13:14:34;9.60;99.90
4509;DHT22;2267;48.816;9.230;2023-11-18T13:17:04;9.60;99.90
4509;DHT22;2267;48.816;9.230;2023-11-18T13:19:35;9.50;99.90
4509;DHT22;2267;48.816;9.230;2023-11-18T13:22:04;9.50;99.90
4509;DHT22;2267;48.816;9.230;2023-11-18T13:24:42;9.50;99.90
4509;DHT22;2267;48.816;9.230;2023-11-18T13:27:14;9.60;99.90
4509;DHT22;2267;48.816;9.230;2023-11-18T13:29:47;9.60;99.90
4509;DHT22;2267;48.816;9.230;2023-11-18T13:32:19;9.60;99.90
4509;DHT22;2267;48.816;9.230;2023-11-18T13:34:52;9.60;99.90
4509;DHT22;2267;48.816;9.230;2023-11-18T13:37:19;9.60;99.90
4509;DHT22;2267;48.816;9.230;2023-11-18T13:39:55;9.60;99.90
4509;DHT22;2267;48.816;9.230;2023-11-18T13:42:24;9.60;99.90
4509;DHT22;2267;48.816;9.230;2023-11-18T13:45:04;9.60;99.90
4509;DHT22;2267;48.816;9.230;2023-11-18T13:47:35;9.60;99.90
4509;DHT22;2267;48.816;9.230;2023-11-18T13:50:07;9.70;99.90
4509;DHT22;2267;48.816;9.230;2023-11-18T13:52:36;9.70;99.90
4509;DHT22;2267;48.816;9.230;2023-11-18T13:55:06;9.60;99.90
4509;DHT22;2267;48.816;9.230;2023-11-18T13:57:34;9.70;99.90
4509;DHT22;2267;48.816;9.230;2023-11-18T14:00:05;9.70;99.90
4509;DHT22;2267;48.816;9.230;2023-11-18T14:02:33;9.60;99.90
4509;DHT22;2267;48.816;9.230;2023-11-18T14:05:03;9.70;99.90
4509;DHT22;2267;48.816;9.230;2023-11-18T14:07:37;9.70;99.90
4509;DHT22;2267;48.816;9.230;2023-11-18T14:10:06;9.70;99.90
4509;DHT22;2267;48.816;9.230;2023-11-18T14:12:35;9.60;99.90
4509;DHT22;2267;48.816;9.230;2023-11-18T14:15:02;9.60;99.90
4509;DHT22;2267;48.816;9.230;2023-11-18T14:17:30;9.70;99.90
4509;DHT22;2267;48.816;9.230;2023-11-18T14:19:57;9.70;99.90
4509;DHT22;2267;48.816;9.230;2023-11-18T14:22:24;9.70;99.90
4509;DHT22;2267;48.816;9.230;2023-11-18T14:24:51;9.70;99.90
4509;DHT22;2267;48.816;9.230;2023-11-18T14:27:20;9.70;99.90
4509;DHT22;2267;48.816;9.230;2023-11-18T14:29:47;9.70;99.90
4509;DHT22;2267;48.816;9.230;2023-11-18T14:32:14;9.70;99.90
4509;DHT22;2267;48.816;9.230;2023-11-18T14:34:41;9.70;99.90
4509;DHT22;2267;48.816;9.230;2023-11-18T14:37:08;9.70;99.90
4509;DHT22;2267;48.816;9.230;2023-11-18T14:39:35;9.70;99.90
4509;DHT22;2267;48.816;9.230;2023-11-18T14:42:04;9.70;99.90
4509;DHT22;2267;48.816;9.230;2023-11-18T14:44:31;9.70;99.90
4509;DHT22;2267;48.816;9.230;2023-11-18T14:46:58;9.70;99.90
4509;DHT22;2267;48.816;9.230;2023-11-18T14:49:27;9.70;99.90
4509;DHT22;2267;48.816;9.230;2023-11-18T14:51:53;9.60;99.90
4509;DHT22;2267;48.816;9.230;2023-11-18T14:54:20;9.70;99.90
4509;DHT22;2267;48.816;9.230;2023-11-18T14:56:47;9.60;99.90
4509;DHT22;2267;48.816;9.230;2023-11-18T14:59:16;9.60;99.90
4509;DHT22;2267;48.816;9.230;2023-11-18T15:01:42;9.60;99.90
4509;DHT22;2267;48.816;9.230;2023-11-18T15:04:10;9.60;99.90
4509;DHT22;2267;48.816;9.230;2023-11-18T15:06:39;9.60;99.90
4509;DHT22;2267;48.816;9.230;2023-11-18T15:09:06;9.60;99.90
4509;DHT22;2267;48.816;9.230;2023-11-18T15:11:37;9.60;99.90
4509;DHT22;2267;48.816;9.230;2023-11-18T15:14:04;9.60;99.90
4509;DHT22;2267;48.816;9.230;2023-11-18T15:16:31;9.60;99.90
4509;DHT22;2267;48.816;9.230;2023-11-18T15:18:58;9.60;99.90
4509;DHT22;2267;48.816;9.230;2023-11-18T15:21:25;9.60;99.90
4509;DHT22;2267;48.816;9.230;2023-11-18T15:23:52;9.60;99.90
4509;DHT22;2267;48.816;9.230;2023-11-18T15:26:19;9.60;99.90
4509;DHT22;2267;48.816;9.230;2023-11-18T15:28:46;9.60;99.90
4509;DHT22;2267;48.816;9.230;2023-11-18T15:31:13;9.60;99.90
4509;DHT22;2267;48.816;9.230;2023-11-18T15:33:41;9.60;99.90
4509;DHT22;2267;48.816;9.230;2023-11-18T15:36:12;9.60;99.90
4509;DHT22;2267;48.816;9.230;2023-11-18T15:38:39;9.60;99.90
4509;DHT22;2267;48.816;9.230;2023-11-18T15:41:06;9.60;99.90
4509;DHT22;2267;48.816;9.230;2023-11-18T15:43:33;9.60;99.90
4509;DHT22;2267;48.816;9.230;2023-11-18T15:46:00;9.50;99.90
4509;DHT22;2267;48.816;9.230;2023-11-18T15:48:26;9.50;99.90
4509;DHT22;2267;48.816;9.230;2023-11-18T15:50:53;9.50;99.90
4509;DHT22;2267;48.816;9.230;2023-11-18T15:53:25;9.50;99.90
4509;DHT22;2267;48.816;9.230;2023-11-18T15:55:54;9.50;99.90
4509;DHT22;2267;48.816;9.230;2023-11-18T15:58:21;9.50;99.90
4509;DHT22;2267;48.816;9.230;2023-11-18T16:00:52;9.50;99.90
4509;DHT22;2267;48.816;9.230;2023-11-18T16:03:19;9.50;99.90
4509;DHT22;2267;48.816;9.230;2023-11-18T16:05:46;9.50;99.90
4509;DHT22;2267;48.816;9.230;2023-11-18T16:08:13;9.50;99.90
4509;DHT22;2267;48.816;9.230;2023-11-18T16:10:40;9.50;99.90
4509;DHT22;2267;48.816;9.230;2023-11-18T16:13:09;9.50;99.90
4509;DHT22;2267;48.816;9.230;2023-11-18T16:15:36;9.50;99.90
4509;DHT22;2267;48.816;9.230;2023-11-18T16:18:03;9.50;99.90
4509;DHT22;2267;48.816;9.230;2023-11-18T16:20:31;9.50;99.90
4509;DHT22;2267;48.816;9.230;2023-11-18T16:23:01;9.50;99.90
4509;DHT22;2267;48.816;9.230;2023-11-18T16:25:30;9.50;99.90
4509;DHT22;2267;48.816;9.230;2023-11-18T16:27:58;9.50;99.90
4509;DHT22;2267;48.816;9.230;2023-11-18T16:30:26;9.50;99.90
4509;DHT22;2267;48.816;9.230;2023-11-18T16:32:59;9.50;99.90
4509;DHT22;2267;48.816;9.230;2023-11-18T16:35:27;9.50;99.90
4509;DHT22;2267;48.816;9.230;2023-11-18T16:37:56;9.60;99.90
4509;DHT22;2267;48.816;9.230;2023-11-18T16:40:23;9.50;99.90
4509;DHT22;2267;48.816;9.230;2023-11-18T16:42:53;9.60;99.90
4509;DHT22;2267;48.816;9.230;2023-11-18T16:45:22;9.60;99.90
4509;DHT22;2267;48.816;9.230;2023-11-18T16:47:51;9.50;99.90
4509;DHT22;2267;48.816;9.230;2023-11-18T16:50:21;9.50;99.90
4509;DHT22;2267;48.816;9.230;2023-11-18T16:52:50;9.50;99.90
4509;DHT22;2267;48.816;9.230;2023-11-18T16:55:17;9.50;99.90